Time;durP1;ratioP1;P1;durP2;ratioP2;P2;SDS_P1;SDS_P2;PMS_P1;PMS_P2;Temp;Humidity;BMP_temperature;BMP_pressure;BME280_temperature;BME280_humidity;BME280_pressure;Samples;Min_cycle;Max_cycle;Signal;HPM_P1;HPM_P2
2022/02/23 00:01:32;;;;;;;18.67;3.20;;;5.90;99.90;;;;;;5019282;28;20053;-63
2022/02/23 00:03:59;;;;;;;21.25;3.53;;;5.80;99.90;;;;;;5015904;28;20038;-63
2022/02/23 00:06:25;;;;;;;16.92;2.72;;;5.80;99.90;;;;;;5017690;28;20486;-63
2022/02/23 00:08:50;;;;;;;15.70;2.50;;;5.80;99.90;;;;;;5020681;28;20029;-63
2022/02/23 00:11:16;;;;;;;15.73;2.67;;;5.70;99.90;;;;;;5018660;28;20068;-62
2022/02/23 00:13:42;;;;;;;32.95;1.83;;;5.70;99.90;;;;;;5020291;28;20494;-63
2022/02/23 00:16:08;;;;;;;14.23;2.35;;;5.70;99.90;;;;;;5019498;28;20374;-63
2022/02/23 00:18:34;;;;;;;20.90;1.90;;;5.70;99.90;;;;;;5016961;28;20494;-63
2022/02/23 00:20:59;;;;;;;11.68;1.65;;;5.70;99.90;;;;;;5019578;28;20049;-65
2022/02/23 00:23:25;;;;;;;10.30;2.35;;;5.70;99.90;;;;;;5015999;28;20043;-62
2022/02/23 00:25:50;;;;;;;12.95;3.03;;;5.80;99.90;;;;;;5020242;28;20037;-63
2022/02/23 00:28:16;;;;;;;18.70;2.17;;;5.70;99.90;;;;;;5016963;28;20049;-63
2022/02/23 00:30:42;;;;;;;10.52;2.15;;;5.70;99.90;;;;;;5019023;28;20045;-63
2022/02/23 00:33:08;;;;;;;17.95;1.73;;;5.70;99.90;;;;;;5018983;28;20022;-63
2022/02/23 00:35:34;;;;;;;16.92;1.90;;;5.60;99.90;;;;;;5018455;28;20371;-63
2022/02/23 00:37:59;;;;;;;13.25;2.67;;;5.60;99.90;;;;;;5021059;28;20103;-63
2022/02/23 00:40:25;;;;;;;12.10;2.10;;;5.60;99.90;;;;;;5017929;28;20038;-63
2022/02/23 00:42:53;;;;;;;13.68;1.40;;;5.60;99.90;;;;;;5020781;28;20088;-63
2022/02/23 00:45:19;;;;;;;19.63;2.13;;;5.60;99.90;;;;;;5017266;28;20026;-63
2022/02/23 00:47:45;;;;;;;7.85;2.22;;;5.60;99.90;;;;;;5020762;28;20033;-64
2022/02/23 00:50:10;;;;;;;7.45;1.63;;;5.50;99.90;;;;;;5016941;28;20112;-63
2022/02/23 00:52:36;;;;;;;15.35;1.90;;;5.50;99.90;;;;;;5019390;28;20046;-63
2022/02/23 00:55:02;;;;;;;18.45;4.35;;;5.50;99.90;;;;;;5022054;28;20041;-63
2022/02/23 00:57:28;;;;;;;17.85;2.10;;;5.50;99.90;;;;;;5022431;28;20561;-63
2022/02/23 00:59:53;;;;;;;20.02;2.67;;;5.60;99.90;;;;;;5023236;28;20129;-63
2022/02/23 01:02:20;;;;;;;11.23;1.75;;;5.50;99.90;;;;;;5020588;28;20030;-64
2022/02/23 01:04:45;;;;;;;10.55;1.30;;;5.60;99.90;;;;;;5024091;28;20109;-63
2022/02/23 01:07:13;;;;;;;15.43;2.33;;;5.50;99.90;;;;;;5022138;28;20116;-63
2022/02/23 01:09:38;;;;;;;9.80;2.25;;;5.50;99.90;;;;;;5022782;28;20030;-62
2022/02/23 01:12:04;;;;;;;13.18;2.10;;;5.50;99.90;;;;;;5022908;28;20109;-62
2022/02/23 01:14:30;;;;;;;15.93;1.40;;;5.50;99.90;;;;;;5021861;28;20038;-63
2022/02/23 01:16:56;;;;;;;17.92;2.60;;;5.50;99.90;;;;;;5023464;28;20036;-63
2022/02/23 01:19:21;;;;;;;21.38;1.83;;;5.50;99.90;;;;;;5019420;28;20494;-63
2022/02/23 01:21:47;;;;;;;26.58;1.95;;;5.50;99.90;;;;;;5023781;28;20087;-63
2022/02/23 01:24:13;;;;;;;17.85;2.45;;;5.50;99.90;;;;;;5021421;28;20374;-63
2022/02/23 01:26:39;;;;;;;19.95;2.03;;;5.50;99.90;;;;;;5023010;28;20033;-63
2022/02/23 01:29:05;;;;;;;14.65;1.92;;;5.50;99.90;;;;;;5022594;28;20036;-63
2022/02/23 01:31:30;;;;;;;10.52;1.92;;;5.50;99.90;;;;;;5021383;28;20038;-62
2022/02/23 01:33:56;;;;;;;17.15;2.75;;;5.50;99.90;;;;;;5023375;28;20042;-63
2022/02/23 01:36:21;;;;;;;21.70;3.35;;;5.50;99.90;;;;;;5021134;28;20116;-63
2022/02/23 01:38:47;;;;;;;16.48;1.83;;;5.50;99.90;;;;;;5024115;28;20033;-63
2022/02/23 01:41:17;;;;;;;9.70;1.73;;;5.50;99.90;;;;;;5021002;28;20498;-62
2022/02/23 01:43:44;;;;;;;12.93;1.52;;;5.50;99.90;;;;;;5019189;28;20477;-63
2022/02/23 01:46:09;;;;;;;12.30;1.48;;;5.50;99.90;;;;;;5020888;28;20034;-63
2022/02/23 01:48:35;;;;;;;12.65;2.13;;;5.40;99.90;;;;;;5021027;28;20044;-62
2022/02/23 01:51:01;;;;;;;12.93;1.70;;;5.50;99.90;;;;;;5020452;28;20030;-62
2022/02/23 01:53:26;;;;;;;14.40;2.08;;;5.40;99.90;;;;;;5022657;28;20044;-63
2022/02/23 01:55:52;;;;;;;13.60;1.42;;;5.40;99.90;;;;;;5019829;28;20030;-62
2022/02/23 01:58:17;;;;;;;13.98;2.30;;;5.40;99.90;;;;;;5023453;28;20040;-63
2022/02/23 02:00:43;;;;;;;15.57;2.00;;;5.40;99.90;;;;;;5020583;28;20391;-63
2022/02/23 02:03:09;;;;;;;10.35;2.78;;;5.30;99.90;;;;;;5021351;28;20034;-63
2022/02/23 02:05:34;;;;;;;9.13;1.10;;;5.30;99.90;;;;;;5021364;28;20068;-63
2022/02/23 02:08:00;;;;;;;15.57;1.88;;;5.30;99.90;;;;;;5018898;28;20040;-63
2022/02/23 02:10:25;;;;;;;9.13;1.67;;;5.30;99.90;;;;;;5021059;28;20036;-63
2022/02/23 02:12:51;;;;;;;11.90;1.95;;;5.20;99.90;;;;;;5018075;28;20108;-63
2022/02/23 02:15:16;;;;;;;17.58;2.78;;;5.20;99.90;;;;;;5021953;28;20494;-63
2022/02/23 02:17:42;;;;;;;16.65;2.60;;;5.10;99.90;;;;;;5020340;28;20118;-63
2022/02/23 02:20:10;;;;;;;19.05;1.75;;;5.10;99.90;;;;;;5021447;28;20038;-63
2022/02/23 02:22:35;;;;;;;12.68;1.35;;;5.10;99.90;;;;;;5021086;28;20041;-63
2022/02/23 02:25:01;;;;;;;13.35;2.63;;;5.10;99.90;;;;;;5020491;28;20164;-63
2022/02/23 02:27:27;;;;;;;6.43;1.33;;;5.00;99.90;;;;;;5021062;28;20038;-63
2022/02/23 02:29:53;;;;;;;8.27;1.20;;;5.00;99.90;;;;;;5019020;28;20030;-63
2022/02/23 02:32:19;;;;;;;18.40;2.63;;;5.10;99.90;;;;;;5021293;28;20041;-63
2022/02/23 02:34:46;;;;;;;20.38;2.00;;;5.00;99.90;;;;;;5020264;28;20091;-63
2022/02/23 02:37:13;;;;;;;12.10;1.45;;;5.10;99.90;;;;;;5020488;28;20045;-63
2022/02/23 02:39:38;;;;;;;10.93;2.20;;;5.10;99.90;;;;;;5020247;28;20060;-63
2022/02/23 02:42:04;;;;;;;11.43;2.42;;;5.10;99.90;;;;;;5020764;28;20375;-65
2022/02/23 02:44:30;;;;;;;8.43;2.17;;;5.00;99.90;;;;;;5022220;28;20124;-63
2022/02/23 02:46:56;;;;;;;16.48;1.13;;;5.00;99.90;;;;;;5018278;28;20661;-64
2022/02/23 02:49:22;;;;;;;9.93;1.70;;;5.00;99.90;;;;;;5022788;28;20457;-63
2022/02/23 02:51:48;;;;;;;16.30;2.33;;;5.10;99.90;;;;;;5019002;28;20122;-63
2022/02/23 02:54:13;;;;;;;20.08;4.00;;;5.00;99.90;;;;;;5022556;28;20462;-63
2022/02/23 02:56:40;;;;;;;11.40;1.42;;;5.00;99.90;;;;;;5019950;28;20181;-63
2022/02/23 02:59:07;;;;;;;7.45;1.45;;;5.00;99.90;;;;;;5021210;28;20387;-64
2022/02/23 03:01:33;;;;;;;10.60;1.52;;;5.00;99.90;;;;;;5020484;28;20060;-64
2022/02/23 03:03:59;;;;;;;13.88;1.45;;;5.00;99.90;;;;;;5020065;28;20481;-63
2022/02/23 03:06:25;;;;;;;10.27;1.52;;;5.10;99.90;;;;;;5022136;28;20034;-63
2022/02/23 03:08:52;;;;;;;7.75;1.13;;;5.00;99.90;;;;;;5018244;28;20326;-63
2022/02/23 03:11:18;;;;;;;18.58;2.78;;;5.00;99.90;;;;;;5022340;28;20033;-63
2022/02/23 03:13:44;;;;;;;18.77;1.65;;;5.00;99.90;;;;;;5019169;28;20040;-63
2022/02/23 03:16:12;;;;;;;9.65;1.20;;;5.00;99.90;;;;;;5021407;28;20461;-63
2022/02/23 03:18:38;;;;;;;21.27;2.97;;;4.90;99.90;;;;;;5019952;28;20120;-63
2022/02/23 03:21:04;;;;;;;12.02;1.67;;;4.80;99.90;;;;;;5020490;28;20387;-63
2022/02/23 03:23:30;;;;;;;13.60;2.35;;;4.80;99.90;;;;;;5020878;28;20038;-63
2022/02/23 03:25:56;;;;;;;21.42;3.25;;;4.80;99.90;;;;;;5018977;28;20030;-62
2022/02/23 03:28:22;;;;;;;16.70;1.95;;;4.70;99.90;;;;;;5019674;28;20064;-63
2022/02/23 03:30:48;;;;;;;13.50;2.67;;;4.70;99.90;;;;;;5016876;28;20049;-63
2022/02/23 03:33:14;;;;;;;18.65;1.90;;;4.70;99.90;;;;;;5020432;28;20037;-63
2022/02/23 03:35:42;;;;;;;5.82;1.35;;;4.60;99.90;;;;;;5019067;28;20510;-63
2022/02/23 03:38:08;;;;;;;15.88;1.63;;;4.60;99.90;;;;;;5021392;28;20954;-63
2022/02/23 03:40:34;;;;;;;9.48;2.17;;;4.50;99.90;;;;;;5019518;28;20057;-63
2022/02/23 03:43:02;;;;;;;11.63;1.27;;;4.50;99.90;;;;;;5022266;28;20374;-66
2022/02/23 03:45:28;;;;;;;13.65;2.30;;;4.50;99.90;;;;;;5019397;28;20037;-62
2022/02/23 03:47:54;;;;;;;16.77;2.20;;;4.40;99.90;;;;;;5017847;28;20036;-63
2022/02/23 03:50:20;;;;;;;14.73;1.40;;;4.40;99.90;;;;;;5019444;28;20069;-63
2022/02/23 03:52:46;;;;;;;9.52;2.05;;;4.30;99.90;;;;;;5018186;28;20421;-64
2022/02/23 03:55:12;;;;;;;17.42;0.77;;;4.30;99.90;;;;;;5022572;28;20042;-63
2022/02/23 03:57:38;;;;;;;10.60;1.15;;;4.20;99.90;;;;;;5020493;28;20040;-62
2022/02/23 04:00:06;;;;;;;18.50;2.00;;;4.20;99.90;;;;;;5016741;28;20037;-62
2022/02/23 04:02:32;;;;;;;15.85;1.33;;;4.20;99.90;;;;;;5019672;28;20132;-63
2022/02/23 04:04:57;;;;;;;14.75;1.17;;;4.10;99.90;;;;;;5019170;28;20108;-62
2022/02/23 04:07:23;;;;;;;9.05;1.20;;;4.10;99.90;;;;;;5018821;28;20034;-62
2022/02/23 04:09:49;;;;;;;13.70;1.45;;;4.10;99.90;;;;;;5020617;28;20113;-62
2022/02/23 04:12:15;;;;;;;6.18;1.67;;;4.10;99.90;;;;;;5016662;28;20053;-62
2022/02/23 04:14:42;;;;;;;7.50;2.00;;;4.10;99.90;;;;;;5018246;28;20034;-62
2022/02/23 04:17:07;;;;;;;6.30;1.63;;;4.10;99.90;;;;;;5020537;28;20284;-63
2022/02/23 04:19:33;;;;;;;15.65;3.05;;;4.10;99.90;;;;;;5018594;28;20033;-63
2022/02/23 04:21:59;;;;;;;10.07;2.00;;;4.10;99.90;;;;;;5017228;28;20508;-63
2022/02/23 04:24:25;;;;;;;10.48;1.60;;;4.10;99.90;;;;;;5019804;28;20042;-62
2022/02/23 04:26:50;;;;;;;16.05;2.83;;;4.10;99.90;;;;;;5016726;28;20034;-62
2022/02/23 04:29:16;;;;;;;17.60;3.72;;;4.10;99.90;;;;;;5019515;28;20193;-62
2022/02/23 04:31:43;;;;;;;22.08;3.55;;;4.10;99.90;;;;;;5021081;28;20117;-62
2022/02/23 04:34:09;;;;;;;9.75;1.35;;;4.00;99.90;;;;;;5024220;28;20037;-64
2022/02/23 04:36:36;;;;;;;16.90;2.80;;;4.00;99.90;;;;;;5020402;28;20037;-62
2022/02/23 04:39:03;;;;;;;11.35;2.08;;;4.00;99.90;;;;;;5023175;28;20037;-63
2022/02/23 04:41:29;;;;;;;11.23;2.33;;;4.10;99.90;;;;;;5022428;28;20128;-63
2022/02/23 04:43:55;;;;;;;16.60;1.92;;;4.00;99.90;;;;;;5024090;28;20138;-63
2022/02/23 04:46:20;;;;;;;19.23;2.95;;;4.00;99.90;;;;;;5021745;28;20114;-63
2022/02/23 04:48:46;;;;;;;13.55;1.92;;;4.00;99.90;;;;;;5021678;28;20505;-64
2022/02/23 04:51:12;;;;;;;17.58;2.50;;;3.90;99.90;;;;;;5023850;28;20571;-62
2022/02/23 04:53:38;;;;;;;9.13;2.13;;;3.90;99.90;;;;;;5021263;28;20101;-63
2022/02/23 04:56:05;;;;;;;5.72;1.27;;;3.90;99.90;;;;;;5023255;28;20025;-63
2022/02/23 04:58:32;;;;;;;11.52;1.60;;;3.80;99.90;;;;;;5021537;28;20571;-64
2022/02/23 05:00:57;;;;;;;17.27;2.53;;;3.80;99.90;;;;;;5021546;28;20124;-63
2022/02/23 05:03:23;;;;;;;15.85;3.05;;;3.80;99.90;;;;;;5022037;28;20138;-63
2022/02/23 05:05:49;;;;;;;18.65;2.83;;;3.80;99.90;;;;;;5023255;28;20507;-63
2022/02/23 05:08:17;;;;;;;11.70;1.42;;;3.80;99.90;;;;;;5020568;28;20077;-63
2022/02/23 05:10:43;;;;;;;8.32;1.38;;;3.80;99.90;;;;;;5023883;28;20127;-63
2022/02/23 05:13:09;;;;;;;12.68;2.15;;;3.80;99.90;;;;;;5020298;28;20018;-63
2022/02/23 05:15:36;;;;;;;11.15;1.85;;;3.80;99.90;;;;;;5024098;28;20136;-62
2022/02/23 05:18:02;;;;;;;16.33;1.83;;;3.80;99.90;;;;;;5021027;28;20054;-62
2022/02/23 05:20:28;;;;;;;14.40;2.33;;;3.80;99.90;;;;;;5021466;28;20033;-63
2022/02/23 05:22:53;;;;;;;15.02;1.67;;;3.80;99.90;;;;;;5021660;28;20072;-63
2022/02/23 05:25:19;;;;;;;19.00;3.67;;;3.80;99.90;;;;;;5021633;28;20057;-63
2022/02/23 05:27:45;;;;;;;13.48;2.10;;;3.70;99.90;;;;;;5023118;28;20040;-64
2022/02/23 05:30:11;;;;;;;12.55;1.98;;;3.70;99.90;;;;;;5021060;28;20031;-63
2022/02/23 05:32:38;;;;;;;15.80;2.20;;;3.70;99.90;;;;;;5018328;28;20121;-64
2022/02/23 05:35:05;;;;;;;11.52;1.42;;;3.70;99.90;;;;;;5023848;28;20115;-63
2022/02/23 05:37:31;;;;;;;18.45;2.47;;;3.60;99.90;;;;;;5020049;28;20479;-64
2022/02/23 05:39:57;;;;;;;7.45;1.02;;;3.60;99.90;;;;;;5021190;28;20117;-63
2022/02/23 05:42:22;;;;;;;9.65;2.15;;;3.60;99.90;;;;;;5025289;28;20063;-63
2022/02/23 05:44:48;;;;;;;15.32;3.58;;;3.60;99.90;;;;;;5021179;28;20034;-63
2022/02/23 05:47:13;;;;;;;6.78;1.55;;;3.60;99.90;;;;;;5019752;28;20057;-63
2022/02/23 05:49:39;;;;;;;10.45;1.95;;;3.60;99.90;;;;;;5028625;28;20493;-62
2022/02/23 05:52:05;;;;;;;14.57;2.58;;;3.60;99.90;;;;;;5019058;28;20030;-63
2022/02/23 05:54:31;;;;;;;14.35;2.00;;;3.60;99.90;;;;;;5043341;23;20149;-61
2022/02/23 05:57:00;;;;;;;10.00;1.88;;;3.60;99.90;;;;;;5014597;28;20128;-62
2022/02/23 05:59:26;;;;;;;9.02;1.80;;;3.60;99.90;;;;;;5001459;28;20397;-64
2022/02/23 06:01:52;;;;;;;8.15;1.63;;;3.60;99.90;;;;;;5009442;28;20037;-67
2022/02/23 06:04:18;;;;;;;11.93;1.20;;;3.70;99.90;;;;;;4997335;28;20035;-62
2022/02/23 06:06:44;;;;;;;10.98;1.50;;;3.70;99.90;;;;;;4999623;28;20038;-62
2022/02/23 06:09:09;;;;;;;14.63;1.80;;;3.60;99.90;;;;;;4997825;28;20049;-63
2022/02/23 06:11:38;;;;;;;35.25;1.98;;;3.60;99.90;;;;;;5001369;28;20152;-63
2022/02/23 06:14:05;;;;;;;13.82;2.30;;;3.60;99.90;;;;;;5002355;28;20038;-63
2022/02/23 06:16:31;;;;;;;7.78;1.42;;;3.60;99.90;;;;;;5001524;28;20038;-61
2022/02/23 06:18:57;;;;;;;11.18;1.80;;;3.60;99.90;;;;;;4996665;28;20567;-61
2022/02/23 06:21:25;;;;;;;10.27;2.38;;;3.60;99.90;;;;;;4994780;28;20066;-63
2022/02/23 06:23:52;;;;;;;6.10;2.15;;;3.60;99.90;;;;;;4997533;28;20049;-61
2022/02/23 06:26:18;;;;;;;15.00;2.65;;;3.50;99.90;;;;;;4996901;28;20490;-62
2022/02/23 06:28:44;;;;;;;18.45;3.38;;;3.60;99.90;;;;;;5001539;28;20061;-61
2022/02/23 06:31:11;;;;;;;13.50;2.55;;;3.50;99.90;;;;;;4997470;28;20090;-64
2022/02/23 06:33:39;;;;;;;13.93;2.00;;;3.50;99.90;;;;;;4993444;28;20044;-63
2022/02/23 06:36:05;;;;;;;13.77;2.80;;;3.50;99.90;;;;;;4994473;28;20034;-63
2022/02/23 06:38:31;;;;;;;11.88;2.53;;;3.50;99.90;;;;;;4995874;28;20411;-60
2022/02/23 06:40:57;;;;;;;26.25;4.32;;;3.50;99.90;;;;;;4993575;28;20068;-62
2022/02/23 06:43:23;;;;;;;8.27;2.20;;;3.50;99.90;;;;;;4996376;28;20046;-61
2022/02/23 06:45:50;;;;;;;20.27;2.97;;;3.50;99.90;;;;;;4995060;28;20448;-61
2022/02/23 06:48:21;;;;;;;9.43;1.95;;;3.40;99.90;;;;;;4998911;28;20030;-64
2022/02/23 06:50:48;;;;;;;9.85;2.22;;;3.40;99.90;;;;;;4994313;28;20070;-61
2022/02/23 06:53:15;;;;;;;10.80;2.67;;;3.40;99.90;;;;;;4992947;28;20712;-62
2022/02/23 06:55:42;;;;;;;25.30;2.15;;;3.40;99.90;;;;;;4998842;28;20034;-62
2022/02/23 06:58:08;;;;;;;13.35;2.83;;;3.30;99.90;;;;;;4997337;28;20148;-63
2022/02/23 07:00:34;;;;;;;9.07;1.90;;;3.30;99.90;;;;;;4994385;28;20488;-62
2022/02/23 07:03:00;;;;;;;12.05;1.75;;;3.30;99.90;;;;;;4996568;28;20387;-61
2022/02/23 07:05:26;;;;;;;16.00;2.15;;;3.40;99.90;;;;;;4996397;28;20030;-62
2022/02/23 07:07:52;;;;;;;13.40;2.33;;;3.40;99.90;;;;;;4995568;28;20146;-68
2022/02/23 07:10:22;;;;;;;13.10;2.30;;;3.40;99.90;;;;;;4993912;28;20110;-63
2022/02/23 07:12:48;;;;;;;18.23;1.80;;;3.40;99.90;;;;;;4996353;28;20481;-62
2022/02/23 07:15:14;;;;;;;16.15;2.17;;;3.40;99.90;;;;;;4995985;28;20034;-62
2022/02/23 07:17:41;;;;;;;21.23;2.25;;;3.40;99.90;;;;;;4993383;28;20379;-62
2022/02/23 07:20:07;;;;;;;15.25;1.63;;;3.40;99.90;;;;;;4997792;28;20042;-61
2022/02/23 07:22:33;;;;;;;15.80;2.83;;;3.50;99.90;;;;;;4996721;28;20461;-64
2022/02/23 07:24:59;;;;;;;12.65;3.17;;;3.50;99.90;;;;;;4994727;28;20109;-61
2022/02/23 07:27:26;;;;;;;13.43;2.83;;;3.50;99.90;;;;;;4996938;28;20053;-62
2022/02/23 07:29:52;;;;;;;27.35;2.65;;;3.50;99.90;;;;;;4997761;28;20113;-66
2022/02/23 07:32:19;;;;;;;9.70;2.03;;;3.60;99.90;;;;;;4995542;28;20447;-61
2022/02/23 07:34:47;;;;;;;13.07;2.25;;;3.60;99.90;;;;;;4993069;28;20034;-63
2022/02/23 07:37:13;;;;;;;21.08;2.35;;;3.70;99.90;;;;;;4998949;28;20526;-60
2022/02/23 07:39:40;;;;;;;12.50;1.92;;;3.80;99.90;;;;;;4995759;28;20125;-62
2022/02/23 07:42:07;;;;;;;17.90;1.90;;;3.80;99.90;;;;;;4992673;28;20048;-61
2022/02/23 07:44:33;;;;;;;16.27;3.28;;;3.80;99.90;;;;;;5001240;28;20052;-62
2022/02/23 07:46:58;;;;;;;12.75;2.00;;;3.90;99.90;;;;;;4999043;28;20037;-63
2022/02/23 07:49:24;;;;;;;15.20;2.20;;;4.00;99.90;;;;;;4996406;28;20078;-62
2022/02/23 07:51:50;;;;;;;20.70;2.15;;;4.10;99.90;;;;;;4996728;28;20077;-63
2022/02/23 07:54:16;;;;;;;8.75;2.33;;;4.10;99.90;;;;;;4997868;28;20058;-62
2022/02/23 07:56:41;;;;;;;16.05;2.15;;;4.30;99.90;;;;;;4993595;28;20553;-62
2022/02/23 07:59:07;;;;;;;11.77;2.30;;;4.40;99.90;;;;;;4995635;28;20573;-62
2022/02/23 08:01:38;;;;;;;10.00;1.63;;;4.50;99.90;;;;;;4997501;28;20523;-61
2022/02/23 08:04:05;;;;;;;15.85;2.65;;;4.80;99.90;;;;;;4995691;28;20425;-61
2022/02/23 08:06:32;;;;;;;14.23;2.65;;;5.10;99.90;;;;;;4997286;28;20093;-61
2022/02/23 08:08:58;;;;;;;19.80;2.45;;;5.30;99.90;;;;;;4994652;28;20089;-63
2022/02/23 08:11:25;;;;;;;8.15;1.63;;;5.40;99.90;;;;;;5001365;28;20033;-62
2022/02/23 08:13:58;;;;;;;13.07;2.20;;;5.60;99.90;;;;;;4998944;28;20046;-61
2022/02/23 08:21:57;;;;;;;12.60;1.73;;;6.10;99.90;;;;;;5000999;28;20092;-61
2022/02/23 08:24:23;;;;;;;13.90;2.20;;;6.30;99.90;;;;;;4997762;28;20439;-62
2022/02/23 08:26:49;;;;;;;12.65;2.03;;;6.40;99.90;;;;;;4999081;28;20038;-61
2022/02/23 08:29:14;;;;;;;22.40;2.80;;;6.40;99.90;;;;;;5001469;28;20436;-62
2022/02/23 08:31:40;;;;;;;10.18;1.25;;;6.50;99.90;;;;;;5002417;28;20092;-62
2022/02/23 08:34:06;;;;;;;10.98;1.60;;;6.50;99.90;;;;;;5002871;28;20085;-64
2022/02/23 08:36:31;;;;;;;11.57;1.70;;;6.70;99.90;;;;;;5002988;28;20039;-61
2022/02/23 08:38:57;;;;;;;13.63;1.83;;;6.70;99.90;;;;;;4999469;28;20044;-62
2022/02/23 08:41:24;;;;;;;15.05;2.13;;;6.80;99.90;;;;;;4995220;28;20490;-64
2022/02/23 08:43:50;;;;;;;12.70;2.65;;;6.90;99.90;;;;;;5003003;28;21519;-60
2022/02/23 08:46:16;;;;;;;16.30;2.13;;;6.90;99.90;;;;;;5000170;28;20584;-62
2022/02/23 08:48:42;;;;;;;12.68;2.03;;;7.00;99.90;;;;;;5002798;28;20060;-63
2022/02/23 08:51:08;;;;;;;10.60;2.03;;;7.00;99.90;;;;;;5004197;28;20414;-62
2022/02/23 08:53:34;;;;;;;12.65;2.08;;;7.20;99.90;;;;;;5004558;28;20041;-62
2022/02/23 08:55:59;;;;;;;11.85;1.50;;;7.30;99.90;;;;;;4997645;28;20053;-62
2022/02/23 08:58:25;;;;;;;9.68;1.35;;;7.40;99.90;;;;;;5000367;28;20042;-64
2022/02/23 09:00:51;;;;;;;21.63;2.13;;;7.50;99.90;;;;;;5000708;28;20501;-61
2022/02/23 09:03:22;;;;;;;14.45;2.50;;;7.50;99.90;;;;;;4999232;28;20057;-62
2022/02/23 09:05:48;;;;;;;11.27;1.60;;;7.70;99.90;;;;;;4999926;28;20054;-62
2022/02/23 09:08:14;;;;;;;12.50;1.80;;;7.80;99.90;;;;;;5004416;28;20062;-60
2022/02/23 09:10:40;;;;;;;12.05;3.35;;;7.80;99.90;;;;;;5005852;28;20465;-60
2022/02/23 09:13:07;;;;;;;11.77;1.95;;;7.90;99.90;;;;;;4995571;28;20035;-60
2022/02/23 09:15:34;;;;;;;8.50;2.25;;;8.00;99.90;;;;;;4999517;28;20033;-61
2022/02/23 09:18:03;;;;;;;12.43;2.47;;;8.10;99.90;;;;;;5000060;28;20128;-61
2022/02/23 09:20:29;;;;;;;17.30;2.40;;;8.20;99.90;;;;;;4997834;28;20030;-61
2022/02/23 09:22:55;;;;;;;23.05;4.18;;;8.30;99.90;;;;;;4999950;28;20061;-63
2022/02/23 09:25:21;;;;;;;13.85;1.52;;;8.30;99.90;;;;;;5002201;28;20082;-61
2022/02/23 09:27:47;;;;;;;7.55;1.60;;;8.40;99.90;;;;;;5000322;28;20031;-61
2022/02/23 09:30:14;;;;;;;16.40;2.13;;;8.40;99.90;;;;;;4997999;28;20038;-62
2022/02/23 09:32:41;;;;;;;11.38;2.10;;;8.50;99.90;;;;;;5003192;28;20053;-61
2022/02/23 09:35:10;;;;;;;12.57;2.17;;;8.50;99.90;;;;;;4999093;28;20755;-62
2022/02/23 09:37:36;;;;;;;13.82;2.97;;;8.60;99.90;;;;;;4995740;28;20042;-61
2022/02/23 09:40:05;;;;;;;13.80;3.13;;;8.60;99.90;;;;;;5000084;28;20096;-62
2022/02/23 09:42:31;;;;;;;19.92;3.13;;;8.70;99.90;;;;;;4997427;28;20034;-62
2022/02/23 09:44:59;;;;;;;14.65;2.80;;;8.70;99.90;;;;;;5003382;28;20026;-61
2022/02/23 09:47:26;;;;;;;11.75;2.40;;;8.70;99.90;;;;;;5003264;28;20042;-61
2022/02/23 09:49:52;;;;;;;15.68;3.35;;;8.80;99.90;;;;;;4999966;28;20060;-61
2022/02/23 09:52:23;;;;;;;10.80;2.80;;;8.80;99.90;;;;;;4996541;28;20030;-62
2022/02/23 09:54:49;;;;;;;19.73;3.85;;;8.90;99.90;;;;;;4998686;28;20037;-64
2022/02/23 09:57:15;;;;;;;15.65;3.05;;;8.90;99.90;;;;;;5001661;28;20080;-61
2022/02/23 09:59:41;;;;;;;17.05;3.17;;;8.90;99.90;;;;;;5004682;28;20088;-61
2022/02/23 10:02:12;;;;;;;10.18;2.92;;;8.90;99.90;;;;;;5000841;28;20069;-61
2022/02/23 10:04:40;;;;;;;12.88;2.90;;;8.80;99.90;;;;;;5001135;28;20092;-61
2022/02/23 10:07:07;;;;;;;13.25;3.22;;;8.90;99.90;;;;;;4995410;28;20046;-61
2022/02/23 10:09:45;;;;;;;17.00;4.28;;;8.90;99.90;;;;;;4994877;28;20498;-61
2022/02/23 10:12:18;;;;;;;12.75;4.22;;;8.90;99.90;;;;;;4995983;28;20042;-61
2022/02/23 10:14:45;;;;;;;14.85;4.25;;;9.00;99.90;;;;;;4998387;28;20045;-62
2022/02/23 10:17:11;;;;;;;18.60;4.30;;;9.10;99.90;;;;;;4993695;28;20145;-63
2022/02/23 10:19:54;;;;;;;13.45;3.83;;;9.20;99.90;;;;;;4995167;28;20062;-61
2022/02/23 10:22:23;;;;;;;9.15;2.63;;;9.20;99.90;;;;;;4990565;28;20040;-60
2022/02/23 10:24:56;;;;;;;15.05;2.95;;;9.20;99.90;;;;;;4996261;28;20417;-60
2022/02/23 10:27:22;;;;;;;19.70;3.65;;;9.20;99.90;;;;;;4992977;28;20155;-62
2022/02/23 10:29:56;;;;;;;17.83;3.53;;;9.40;99.90;;;;;;4996374;28;20124;-61
2022/02/23 10:32:25;;;;;;;16.05;3.63;;;9.40;99.90;;;;;;4993177;28;20057;-61
2022/02/23 10:34:57;;;;;;;19.40;2.92;;;9.40;99.90;;;;;;4994162;28;20034;-61
2022/02/23 10:37:24;;;;;;;16.40;3.63;;;9.40;99.90;;;;;;4990896;28;20046;-63
2022/02/23 10:39:55;;;;;;;15.25;4.03;;;9.50;99.90;;;;;;4992542;28;20030;-62
2022/02/23 10:42:26;;;;;;;15.27;3.45;;;9.60;99.90;;;;;;4992904;28;20407;-60
2022/02/23 10:44:53;;;;;;;15.52;4.95;;;9.60;99.90;;;;;;4990822;28;20051;-61
2022/02/23 10:47:24;;;;;;;10.13;2.67;;;9.70;99.90;;;;;;4995040;28;20069;-63
2022/02/23 10:50:07;;;;;;;9.35;2.65;;;9.70;99.90;;;;;;4991530;28;20042;-63
2022/02/23 10:52:38;;;;;;;13.52;2.70;;;9.80;99.90;;;;;;4988693;28;20543;-61
2022/02/23 10:55:20;;;;;;;16.70;2.67;;;9.80;99.90;;;;;;4990812;28;20434;-62
2022/02/23 10:58:06;;;;;;;17.02;3.78;;;9.80;99.90;;;;;;4995702;28;20401;-61
2022/02/23 11:00:43;;;;;;;15.20;4.05;;;9.90;99.90;;;;;;4989841;28;20062;-62
2022/02/23 11:03:09;;;;;;;14.73;2.67;;;9.90;99.90;;;;;;4994722;28;20038;-62
2022/02/23 11:05:34;;;;;;;16.83;3.28;;;9.90;99.90;;;;;;4993814;28;20486;-61
2022/02/23 11:08:03;;;;;;;14.65;2.95;;;9.90;99.90;;;;;;4993134;28;20182;-62
2022/02/23 11:10:29;;;;;;;9.95;2.20;;;10.10;99.90;;;;;;4996995;28;20034;-61
2022/02/23 11:12:57;;;;;;;7.60;1.70;;;10.10;99.90;;;;;;4990802;28;20038;-62
2022/02/23 11:15:24;;;;;;;13.05;3.25;;;10.10;99.90;;;;;;4993897;28;20116;-63
2022/02/23 11:17:53;;;;;;;9.13;2.38;;;10.20;99.90;;;;;;4992486;28;20034;-61
2022/02/23 11:20:29;;;;;;;7.38;1.83;;;10.20;99.90;;;;;;4993337;28;20034;-63
2022/02/23 11:22:59;;;;;;;13.90;2.30;;;10.20;99.90;;;;;;4996890;28;20038;-60
2022/02/23 11:25:45;;;;;;;14.27;1.73;;;10.20;99.90;;;;;;4999358;28;20504;-62
2022/02/23 11:28:28;;;;;;;12.88;1.85;;;10.20;99.90;;;;;;4998614;28;20033;-62
2022/02/23 11:30:56;;;;;;;5.75;1.40;;;10.30;99.90;;;;;;5000066;28;20036;-61
2022/02/23 11:33:57;;;;;;;11.75;2.25;;;10.30;99.90;;;;;;4993218;28;20092;-62
2022/02/23 11:36:23;;;;;;;13.50;1.95;;;10.30;99.90;;;;;;4991857;28;20091;-65
2022/02/23 11:38:50;;;;;;;5.65;1.02;;;10.40;99.90;;;;;;4993095;28;20046;-62
2022/02/23 11:41:25;;;;;;;10.13;2.03;;;10.40;99.90;;;;;;4990914;28;20664;-61
2022/02/23 11:44:14;;;;;;;8.90;1.42;;;10.40;99.90;;;;;;4995897;28;20077;-61
2022/02/23 11:46:57;;;;;;;12.67;1.30;;;10.40;99.90;;;;;;4975627;23;1080051;-63
2022/02/23 11:49:31;;;;;;;18.98;2.15;;;10.40;99.90;;;;;;5018529;28;20096;-65
2022/02/23 11:52:09;;;;;;;7.57;1.13;;;10.40;99.90;;;;;;5016619;28;20041;-66
2022/02/23 11:55:11;;;;;;;8.55;2.03;;;10.40;99.90;;;;;;5012704;28;20489;-65
2022/02/23 11:57:48;;;;;;;7.13;1.75;;;10.50;99.90;;;;;;5013923;28;20411;-65
2022/02/23 12:00:15;;;;;;;12.32;1.50;;;10.50;99.90;;;;;;5016653;28;21082;-66
2022/02/23 12:02:54;;;;;;;8.43;1.45;;;10.50;99.90;;;;;;5022932;28;20048;-65
2022/02/23 12:05:35;;;;;;;5.90;1.63;;;10.60;99.90;;;;;;5019019;28;20030;-66
2022/02/23 12:08:01;;;;;;;4.97;1.08;;;10.60;99.90;;;;;;5016381;28;20468;-64
2022/02/23 12:10:28;;;;;;;5.05;1.17;;;10.70;99.90;;;;;;5021383;28;20163;-66
2022/02/23 12:12:54;;;;;;;4.90;0.98;;;10.70;99.90;;;;;;5024438;28;20104;-69
2022/02/23 12:15:23;;;;;;;4.75;1.15;;;10.70;99.90;;;;;;5016800;28;20045;-67
2022/02/23 12:18:12;;;;;;;5.32;1.02;;;10.80;99.90;;;;;;5016738;28;20602;-63
2022/02/23 12:20:38;;;;;;;7.15;1.67;;;10.80;99.90;;;;;;5020323;28;20046;-66
2022/02/23 12:23:08;;;;;;;6.82;1.05;;;10.80;99.90;;;;;;5012903;28;20076;-66
2022/02/23 12:26:03;;;;;;;8.23;1.63;;;10.80;99.90;;;;;;5015873;28;20351;-66
2022/02/23 12:28:34;;;;;;;8.70;0.98;;;10.80;99.90;;;;;;5015458;28;20061;-66
2022/02/23 12:31:00;;;;;;;6.97;1.40;;;10.70;99.90;;;;;;5021406;28;20049;-68
2022/02/23 12:33:26;;;;;;;6.20;1.63;;;10.80;99.90;;;;;;5015389;28;20489;-66
2022/02/23 12:35:54;;;;;;;10.70;1.63;;;10.70;99.90;;;;;;5017925;28;20477;-66
2022/02/23 12:38:29;;;;;;;8.18;1.20;;;10.70;99.90;;;;;;5017428;28;20439;-67
2022/02/23 12:40:57;;;;;;;24.20;2.55;;;10.70;99.90;;;;;;5019276;28;20481;-66
2022/02/23 12:43:23;;;;;;;4.70;0.90;;;10.70;99.90;;;;;;5016193;28;20049;-66
2022/02/23 12:45:54;;;;;;;9.80;1.27;;;10.70;99.90;;;;;;5017258;28;20034;-64
2022/02/23 12:48:30;;;;;;;9.15;2.22;;;10.70;99.90;;;;;;5018308;28;20505;-66
2022/02/23 12:51:07;;;;;;;7.57;1.83;;;10.70;99.90;;;;;;5015632;28;20049;-66
2022/02/23 12:53:35;;;;;;;6.18;1.27;;;10.60;99.90;;;;;;5022184;28;20044;-65
2022/02/23 12:56:29;;;;;;;6.80;1.65;;;10.70;99.90;;;;;;5021992;28;20117;-66